Time;durP1;ratioP1;P1;durP2;ratioP2;P2;SDS_P1;SDS_P2;PMS_P1;PMS_P2;Temp;Humidity;BMP_temperature;BMP_pressure;BME280_temperature;BME280_humidity;BME280_pressure;Samples;Min_cycle;Max_cycle;Signal;HPM_P1;HPM_P2
2023/07/31 00:00:00;;;;;;;3.47;1.80;;;16.30;99.90;;;;;;5016603;28;20923;-59
2023/07/31 00:02:25;;;;;;;3.93;1.63;;;16.20;99.90;;;;;;5015133;28;20250;-66
2023/07/31 00:04:51;;;;;;;2.53;2.20;;;16.30;99.90;;;;;;5010950;28;20200;-63
2023/07/31 00:07:16;;;;;;;5.20;2.33;;;16.30;99.90;;;;;;5019183;28;20666;-66
2023/07/31 00:09:42;;;;;;;3.23;1.63;;;16.30;99.90;;;;;;5019152;28;20192;-65
2023/07/31 00:12:08;;;;;;;3.93;1.90;;;16.40;99.90;;;;;;5009551;28;20208;-64
2023/07/31 00:14:33;;;;;;;3.57;1.73;;;16.40;99.90;;;;;;5018882;28;20239;-62
2023/07/31 00:16:59;;;;;;;2.57;1.30;;;16.50;99.90;;;;;;5016699;28;20564;-61
2023/07/31 00:19:24;;;;;;;3.67;1.70;;;16.40;99.90;;;;;;5019548;28;20816;-62
2023/07/31 00:21:50;;;;;;;3.00;1.47;;;16.40;99.90;;;;;;5020705;28;20243;-62
2023/07/31 00:24:15;;;;;;;2.27;1.60;;;16.40;99.90;;;;;;5015954;28;20246;-62
2023/07/31 00:26:41;;;;;;;3.90;1.87;;;16.40;99.90;;;;;;5013588;28;20629;-62
2023/07/31 00:29:06;;;;;;;3.97;1.67;;;16.40;99.90;;;;;;5003591;28;20703;-61
2023/07/31 00:31:32;;;;;;;2.50;1.50;;;16.50;99.90;;;;;;5020515;28;20187;-64
2023/07/31 00:33:57;;;;;;;3.27;1.67;;;16.40;99.90;;;;;;5007078;28;20204;-64
2023/07/31 00:36:23;;;;;;;3.50;1.90;;;16.40;99.90;;;;;;5010080;28;20227;-64
2023/07/31 00:38:49;;;;;;;4.97;2.70;;;16.40;99.90;;;;;;5017453;28;20203;-64
2023/07/31 00:41:14;;;;;;;4.77;2.03;;;16.30;99.90;;;;;;5016098;28;20204;-64
2023/07/31 00:43:40;;;;;;;4.73;2.50;;;16.40;99.90;;;;;;5002353;28;20200;-64
2023/07/31 00:46:06;;;;;;;3.30;2.10;;;16.30;99.90;;;;;;5012701;28;20187;-63
2023/07/31 00:48:32;;;;;;;3.87;2.27;;;16.30;99.90;;;;;;5005604;28;20257;-64
2023/07/31 00:50:57;;;;;;;4.00;2.07;;;16.40;99.90;;;;;;5014501;28;20191;-63
2023/07/31 00:53:24;;;;;;;3.83;2.50;;;16.40;99.90;;;;;;5006380;28;20223;-63
2023/07/31 00:55:51;;;;;;;3.83;2.13;;;16.60;99.90;;;;;;5009497;28;20172;-63
2023/07/31 00:58:17;;;;;;;3.07;1.77;;;16.60;99.90;;;;;;5004163;28;20196;-63
2023/07/31 01:00:42;;;;;;;2.30;2.10;;;16.70;99.90;;;;;;5015635;28;20311;-62
2023/07/31 01:03:08;;;;;;;3.00;2.33;;;16.70;99.90;;;;;;5018351;28;20203;-63
2023/07/31 01:05:49;;;;;;;3.30;2.30;;;16.60;99.90;;;;;;5013347;28;20176;-63
2023/07/31 01:08:42;;;;;;;4.70;2.07;;;16.60;99.90;;;;;;5013075;28;20202;-63
2023/07/31 01:11:24;;;;;;;3.37;2.50;;;16.60;99.90;;;;;;5013415;28;20201;-63
2023/07/31 01:13:50;;;;;;;4.37;1.80;;;16.60;99.90;;;;;;5004533;28;20300;-63
2023/07/31 01:16:16;;;;;;;3.60;2.10;;;16.60;99.90;;;;;;5013279;28;20274;-64
2023/07/31 01:18:41;;;;;;;2.70;2.17;;;16.70;99.90;;;;;;5013800;28;20219;-63
2023/07/31 01:21:29;;;;;;;3.30;2.80;;;16.80;99.90;;;;;;5016990;28;20681;-63
2023/07/31 01:24:37;;;;;;;3.63;2.53;;;16.80;99.90;;;;;;5017968;28;20748;-63
2023/07/31 01:27:29;;;;;;;4.50;2.97;;;16.70;99.90;;;;;;5010118;28;20198;-63
2023/07/31 01:30:18;;;;;;;2.87;2.03;;;16.70;99.90;;;;;;4996803;28;20207;-63
2023/07/31 01:32:48;;;;;;;2.27;2.07;;;16.80;99.90;;;;;;5015131;28;20187;-64
2023/07/31 01:35:13;;;;;;;5.70;2.40;;;16.60;99.90;;;;;;5006115;28;20240;-63
2023/07/31 01:37:39;;;;;;;3.30;2.37;;;16.60;99.90;;;;;;5015430;28;20200;-62
2023/07/31 01:40:06;;;;;;;4.50;2.23;;;16.60;99.90;;;;;;5002635;28;20890;-61
2023/07/31 01:42:31;;;;;;;6.07;2.17;;;16.70;99.90;;;;;;5010712;28;20222;-62
2023/07/31 01:44:57;;;;;;;2.10;1.90;;;16.70;99.90;;;;;;5011573;28;20200;-62
2023/07/31 01:47:23;;;;;;;5.30;2.17;;;16.80;99.90;;;;;;5012607;28;20598;-62
2023/07/31 01:49:49;;;;;;;3.87;2.80;;;16.70;99.90;;;;;;5013223;28;20236;-62
2023/07/31 01:52:14;;;;;;;3.60;2.13;;;16.80;99.90;;;;;;5007485;28;20199;-62
2023/07/31 01:54:39;;;;;;;5.47;2.33;;;16.80;99.90;;;;;;5015881;28;20683;-62
2023/07/31 01:57:05;;;;;;;3.10;1.87;;;16.60;99.90;;;;;;5009833;28;20204;-64
2023/07/31 01:59:31;;;;;;;3.07;2.30;;;16.60;99.90;;;;;;5005659;28;20291;-64
2023/07/31 02:01:56;;;;;;;2.97;2.13;;;16.50;99.90;;;;;;5005993;28;20575;-64
2023/07/31 02:04:22;;;;;;;2.23;1.77;;;16.60;99.90;;;;;;5010620;28;20245;-64
2023/07/31 02:06:47;;;;;;;4.17;2.23;;;16.60;99.90;;;;;;5010303;28;20200;-64
2023/07/31 02:09:13;;;;;;;5.70;2.37;;;16.40;99.90;;;;;;5008399;28;20195;-60
2023/07/31 02:11:38;;;;;;;3.30;2.17;;;16.50;99.90;;;;;;5012489;28;20227;-61
2023/07/31 02:14:04;;;;;;;2.07;1.90;;;16.50;99.90;;;;;;5017549;28;20427;-60
2023/07/31 02:16:29;;;;;;;3.03;2.27;;;16.70;99.90;;;;;;5018734;28;20245;-60
2023/07/31 02:18:55;;;;;;;3.70;2.33;;;16.70;99.90;;;;;;5014153;28;20688;-60
2023/07/31 02:21:20;;;;;;;4.93;2.27;;;16.70;99.90;;;;;;5015610;28;20383;-60
2023/07/31 02:23:45;;;;;;;2.90;2.10;;;16.80;99.90;;;;;;5006358;28;20577;-60
2023/07/31 02:26:11;;;;;;;3.23;2.30;;;16.90;99.90;;;;;;5021448;28;20192;-60
2023/07/31 02:28:37;;;;;;;2.67;2.47;;;17.00;99.90;;;;;;5007071;28;20239;-61
2023/07/31 02:31:02;;;;;;;4.73;2.53;;;17.10;99.90;;;;;;5015020;28;20184;-61
2023/07/31 02:33:28;;;;;;;3.60;2.63;;;17.00;99.90;;;;;;5019254;28;20203;-61
2023/07/31 02:35:53;;;;;;;4.20;2.60;;;17.00;99.90;;;;;;5004233;28;20228;-61
2023/07/31 02:38:19;;;;;;;2.97;2.57;;;17.00;99.90;;;;;;5005760;28;20822;-61
2023/07/31 02:40:44;;;;;;;4.17;2.00;;;16.90;99.90;;;;;;5014749;28;20338;-60
2023/07/31 02:43:10;;;;;;;5.20;2.53;;;16.90;99.90;;;;;;5013590;28;20226;-61
2023/07/31 02:45:35;;;;;;;3.03;2.40;;;16.90;99.90;;;;;;5006228;28;20223;-61
2023/07/31 02:48:01;;;;;;;4.40;2.17;;;17.00;99.90;;;;;;5006537;28;20534;-59
2023/07/31 02:50:27;;;;;;;4.33;2.53;;;17.00;99.90;;;;;;5014764;28;20709;-70
2023/07/31 02:52:53;;;;;;;7.57;2.53;;;16.90;99.90;;;;;;5013718;28;20323;-61
2023/07/31 02:55:18;;;;;;;3.77;2.23;;;17.00;99.90;;;;;;5008067;28;20843;-60
2023/07/31 02:57:44;;;;;;;3.53;2.70;;;17.10;99.90;;;;;;5002457;28;20797;-61
2023/07/31 03:00:09;;;;;;;3.43;2.33;;;17.00;99.90;;;;;;5009960;28;20199;-59
2023/07/31 03:02:35;;;;;;;5.40;2.50;;;17.20;99.90;;;;;;5019712;28;20564;-58
2023/07/31 03:05:00;;;;;;;5.47;2.97;;;17.20;99.90;;;;;;5017094;28;20305;-58
2023/07/31 03:07:26;;;;;;;6.13;3.03;;;17.20;99.90;;;;;;5010763;28;20692;-59
2023/07/31 03:09:51;;;;;;;5.07;3.20;;;17.20;99.90;;;;;;5010900;28;20221;-62
2023/07/31 03:12:17;;;;;;;4.83;4.30;;;17.20;99.90;;;;;;5015827;28;20684;-61
2023/07/31 03:14:42;;;;;;;10.33;2.80;;;17.20;99.90;;;;;;5013899;28;20329;-62
2023/07/31 03:17:08;;;;;;;4.03;3.30;;;17.20;99.90;;;;;;5010754;28;20204;-61
2023/07/31 03:19:33;;;;;;;6.53;3.00;;;17.10;99.90;;;;;;5018266;28;20194;-62
2023/07/31 03:21:59;;;;;;;5.17;2.83;;;17.10;99.90;;;;;;5014357;28;20268;-64
2023/07/31 03:24:25;;;;;;;5.73;2.70;;;17.10;99.90;;;;;;5017485;28;20192;-64
2023/07/31 03:26:51;;;;;;;3.37;3.00;;;17.00;99.90;;;;;;5011378;28;20196;-65
2023/07/31 03:29:17;;;;;;;4.07;2.83;;;16.90;99.90;;;;;;5014511;28;20206;-61
2023/07/31 03:31:42;;;;;;;4.80;2.73;;;16.90;99.90;;;;;;5008937;28;20561;-60
2023/07/31 03:34:08;;;;;;;3.53;3.17;;;17.00;99.90;;;;;;5004485;28;20208;-62
2023/07/31 03:36:33;;;;;;;4.07;2.90;;;17.00;99.90;;;;;;5016675;28;20188;-62
2023/07/31 03:38:58;;;;;;;4.30;3.00;;;16.90;99.90;;;;;;5012488;28;20200;-58
2023/07/31 03:41:24;;;;;;;6.30;3.40;;;16.90;99.90;;;;;;5016735;28;20227;-58
2023/07/31 03:43:57;;;;;;;3.80;3.37;;;16.90;99.90;;;;;;5015391;28;20240;-59
2023/07/31 03:46:24;;;;;;;3.97;2.70;;;17.00;99.90;;;;;;5015864;28;20645;-59
2023/07/31 03:48:50;;;;;;;3.90;3.47;;;17.00;99.90;;;;;;5017833;28;20213;-62
2023/07/31 03:51:15;;;;;;;6.50;3.10;;;16.80;99.90;;;;;;5019967;28;20200;-61
2023/07/31 03:53:41;;;;;;;4.97;3.63;;;16.80;99.90;;;;;;5018985;28;20451;-60
2023/07/31 03:56:06;;;;;;;3.87;3.20;;;16.80;99.90;;;;;;5016223;28;20219;-61
2023/07/31 03:58:32;;;;;;;5.03;3.30;;;16.90;99.90;;;;;;5016377;28;20709;-61
2023/07/31 04:00:57;;;;;;;7.03;3.80;;;16.90;99.90;;;;;;5022238;28;20221;-62
2023/07/31 04:03:23;;;;;;;8.83;3.97;;;16.80;99.90;;;;;;5022390;28;20914;-61
2023/07/31 04:05:48;;;;;;;5.17;3.43;;;16.80;99.90;;;;;;5009307;28;20192;-61
2023/07/31 04:08:14;;;;;;;5.23;3.60;;;16.80;99.90;;;;;;5009183;28;20867;-61
2023/07/31 04:10:39;;;;;;;4.37;3.07;;;16.80;99.90;;;;;;5015710;28;20291;-61
2023/07/31 04:13:04;;;;;;;5.57;3.80;;;16.90;99.90;;;;;;5017316;28;20216;-61
2023/07/31 04:15:30;;;;;;;6.03;3.70;;;16.80;99.90;;;;;;5011673;28;20917;-61
2023/07/31 04:17:55;;;;;;;3.93;3.30;;;16.80;99.90;;;;;;5009899;28;20208;-61
2023/07/31 04:20:21;;;;;;;5.37;3.37;;;16.90;99.90;;;;;;5006619;28;20215;-62
2023/07/31 04:22:46;;;;;;;8.60;3.60;;;16.80;99.90;;;;;;5013058;28;20342;-64
2023/07/31 04:25:12;;;;;;;3.87;3.47;;;16.80;99.90;;;;;;5021535;28;20192;-64
2023/07/31 04:27:37;;;;;;;4.30;3.23;;;16.80;99.90;;;;;;5010267;28;20207;-64
2023/07/31 04:30:04;;;;;;;5.63;4.30;;;16.80;99.90;;;;;;5019770;28;20191;-63
2023/07/31 04:32:29;;;;;;;9.50;4.00;;;16.70;99.90;;;;;;5015053;28;20200;-63
2023/07/31 04:34:55;;;;;;;6.57;3.53;;;16.70;99.90;;;;;;5016137;28;21039;-63
2023/07/31 04:37:20;;;;;;;5.23;3.43;;;16.80;99.90;;;;;;5004497;28;20283;-63
2023/07/31 04:39:46;;;;;;;3.63;3.37;;;16.80;99.90;;;;;;5009914;28;20184;-63
2023/07/31 04:42:12;;;;;;;7.60;3.60;;;16.70;99.90;;;;;;5019696;28;20219;-62
2023/07/31 04:44:37;;;;;;;5.40;3.50;;;16.80;99.90;;;;;;5020989;28;20202;-63
2023/07/31 04:47:03;;;;;;;7.07;3.50;;;16.80;99.90;;;;;;5014547;28;20580;-62
2023/07/31 04:49:28;;;;;;;5.63;3.00;;;16.80;99.90;;;;;;5019144;28;20420;-63
2023/07/31 04:51:54;;;;;;;5.67;3.57;;;16.80;99.90;;;;;;5018449;28;20191;-62
2023/07/31 04:54:19;;;;;;;5.20;3.40;;;16.70;99.90;;;;;;5023802;28;20183;-62
2023/07/31 04:56:45;;;;;;;4.27;2.67;;;16.60;99.90;;;;;;5014693;28;20187;-62
2023/07/31 04:59:10;;;;;;;4.70;3.43;;;16.60;99.90;;;;;;5010926;28;20196;-62
2023/07/31 05:01:36;;;;;;;4.90;3.40;;;16.60;99.90;;;;;;5007737;28;20265;-62
2023/07/31 05:04:02;;;;;;;8.43;3.50;;;16.70;99.90;;;;;;5009404;28;20210;-62
2023/07/31 05:06:27;;;;;;;4.53;3.47;;;16.70;99.90;;;;;;5012375;28;20226;-63
2023/07/31 05:08:53;;;;;;;5.30;3.47;;;16.60;99.90;;;;;;5007155;28;20666;-62
2023/07/31 05:11:18;;;;;;;8.90;4.23;;;16.60;99.90;;;;;;5012820;28;20315;-63
2023/07/31 05:13:43;;;;;;;4.57;3.70;;;16.70;99.90;;;;;;5012756;28;20211;-61
2023/07/31 05:16:09;;;;;;;4.30;3.47;;;16.80;99.90;;;;;;5022138;28;20212;-62
2023/07/31 05:18:34;;;;;;;3.33;3.03;;;16.90;99.90;;;;;;5019226;28;20291;-61
2023/07/31 05:21:00;;;;;;;7.23;3.47;;;16.90;99.90;;;;;;5009668;28;20570;-61
2023/07/31 05:23:26;;;;;;;5.73;3.50;;;16.90;99.90;;;;;;5012930;28;21043;-61
2023/07/31 05:25:51;;;;;;;7.10;4.57;;;16.90;99.90;;;;;;5006349;28;20235;-62
2023/07/31 05:28:16;;;;;;;5.60;3.77;;;16.90;99.90;;;;;;5012270;28;20704;-62
2023/07/31 05:30:42;;;;;;;4.00;3.70;;;16.90;99.90;;;;;;5021884;28;20836;-61
2023/07/31 05:33:07;;;;;;;4.03;3.60;;;16.80;99.90;;;;;;5013252;28;20281;-61
2023/07/31 05:35:33;;;;;;;9.00;5.33;;;16.70;99.90;;;;;;5018766;28;20234;-62
2023/07/31 05:37:58;;;;;;;6.13;3.77;;;16.90;99.90;;;;;;5016523;28;20226;-61
2023/07/31 05:40:24;;;;;;;3.80;3.50;;;16.90;99.90;;;;;;5005593;28;20627;-62
2023/07/31 05:42:49;;;;;;;6.80;4.17;;;17.00;99.90;;;;;;5009691;28;20228;-65
2023/07/31 05:45:15;;;;;;;10.23;4.20;;;17.10;99.90;;;;;;5016223;28;20210;-66
2023/07/31 05:47:40;;;;;;;11.00;4.30;;;17.10;99.90;;;;;;5019258;28;20257;-67
2023/07/31 05:50:06;;;;;;;13.40;4.10;;;17.10;99.90;;;;;;5012226;28;20183;-66
2023/07/31 05:52:32;;;;;;;10.23;3.57;;;17.10;99.90;;;;;;5015349;28;20202;-67
2023/07/31 05:54:57;;;;;;;4.93;3.30;;;17.10;99.90;;;;;;5013189;28;20254;-66
2023/07/31 05:57:23;;;;;;;6.27;3.63;;;17.00;99.90;;;;;;5013067;28;20254;-65
2023/07/31 05:59:48;;;;;;;7.03;3.70;;;17.10;99.90;;;;;;5019523;28;20665;-66
2023/07/31 06:02:14;;;;;;;9.93;3.40;;;17.20;99.90;;;;;;5015173;28;20222;-66
2023/07/31 06:04:39;;;;;;;11.27;4.20;;;17.10;99.90;;;;;;5016865;28;20196;-61
2023/07/31 06:07:05;;;;;;;6.87;3.80;;;17.10;99.90;;;;;;5014037;28;20195;-61
2023/07/31 06:09:31;;;;;;;6.80;3.43;;;16.90;99.90;;;;;;5014500;28;20187;-61
2023/07/31 06:11:56;;;;;;;8.33;3.13;;;16.90;99.90;;;;;;5012799;28;20181;-61
2023/07/31 06:14:22;;;;;;;5.37;3.00;;;17.00;99.90;;;;;;5019132;28;20203;-61
2023/07/31 06:16:47;;;;;;;9.63;4.17;;;17.00;99.90;;;;;;5011645;28;20243;-69
2023/07/31 06:19:13;;;;;;;9.33;3.47;;;17.10;99.90;;;;;;5018558;28;20700;-67
2023/07/31 06:21:38;;;;;;;7.13;4.33;;;17.10;99.90;;;;;;5018648;28;20937;-68
2023/07/31 06:24:05;;;;;;;5.57;3.60;;;17.10;99.90;;;;;;5014853;28;20290;-68
2023/07/31 06:26:31;;;;;;;4.97;3.57;;;16.90;99.90;;;;;;5013743;28;20681;-68
2023/07/31 06:28:56;;;;;;;4.43;3.57;;;16.90;99.90;;;;;;5015933;28;20234;-67
2023/07/31 06:31:22;;;;;;;6.63;3.93;;;17.00;99.90;;;;;;5017914;28;20948;-68
2023/07/31 06:33:51;;;;;;;4.33;2.97;;;17.10;99.90;;;;;;5004963;28;20263;-66
2023/07/31 06:36:17;;;;;;;7.13;2.90;;;17.20;99.90;;;;;;5021388;28;20269;-71
2023/07/31 06:38:42;;;;;;;8.07;4.03;;;17.20;99.90;;;;;;5008437;28;20197;-68
2023/07/31 06:41:08;;;;;;;4.60;3.30;;;17.30;99.90;;;;;;5011580;28;20214;-61
2023/07/31 06:43:33;;;;;;;5.43;3.40;;;17.30;99.90;;;;;;5010011;28;20800;-62
2023/07/31 06:46:07;;;;;;;3.83;3.20;;;17.30;99.90;;;;;;5012008;28;20203;-62
2023/07/31 06:48:37;;;;;;;7.20;3.23;;;17.40;99.90;;;;;;5006881;28;20201;-61
2023/07/31 06:51:02;;;;;;;4.83;2.97;;;17.40;99.90;;;;;;5020147;28;20637;-61
2023/07/31 06:53:28;;;;;;;8.57;3.23;;;17.50;99.90;;;;;;5015504;28;20730;-61
2023/07/31 06:55:54;;;;;;;3.17;2.87;;;17.50;99.90;;;;;;5020586;28;20619;-63
2023/07/31 06:58:20;;;;;;;3.87;3.17;;;17.50;99.90;;;;;;5019066;28;20681;-60
2023/07/31 07:00:45;;;;;;;3.27;2.73;;;17.60;99.90;;;;;;5019422;28;20610;-60
2023/07/31 07:03:11;;;;;;;3.17;2.70;;;17.60;99.90;;;;;;5016660;28;20218;-60
2023/07/31 07:05:36;;;;;;;11.13;3.50;;;17.60;99.90;;;;;;5011580;28;20192;-60
2023/07/31 07:08:02;;;;;;;7.07;2.60;;;17.50;99.90;;;;;;5013465;28;20208;-60
2023/07/31 07:10:28;;;;;;;4.23;2.90;;;17.50;99.90;;;;;;5013041;28;20231;-59
2023/07/31 07:12:55;;;;;;;3.47;2.97;;;17.40;99.90;;;;;;5008944;28;20748;-59
2023/07/31 07:15:20;;;;;;;7.17;4.30;;;17.30;99.90;;;;;;5015806;28;20314;-57
2023/07/31 07:17:46;;;;;;;5.40;2.90;;;17.20;99.90;;;;;;5015591;28;20773;-57
2023/07/31 07:20:12;;;;;;;3.33;2.50;;;17.20;99.90;;;;;;5024674;28;20206;-57
2023/07/31 07:22:38;;;;;;;4.57;3.20;;;17.20;99.90;;;;;;5008160;28;20263;-66
2023/07/31 07:25:04;;;;;;;3.43;2.63;;;17.20;99.90;;;;;;5006302;28;20666;-64
2023/07/31 07:27:30;;;;;;;4.67;3.63;;;17.20;99.90;;;;;;5020588;28;20235;-64
2023/07/31 07:29:55;;;;;;;3.50;2.60;;;17.20;99.90;;;;;;5012253;28;20220;-64
2023/07/31 07:32:21;;;;;;;3.00;2.63;;;17.10;99.90;;;;;;5020727;28;20235;-58
2023/07/31 07:34:48;;;;;;;5.53;2.27;;;17.20;99.90;;;;;;5016726;28;20250;-65
2023/07/31 07:37:13;;;;;;;4.57;2.93;;;17.30;99.90;;;;;;5017262;28;20681;-67
2023/07/31 07:39:38;;;;;;;2.83;2.63;;;17.30;99.90;;;;;;5019891;28;20222;-61
2023/07/31 07:42:04;;;;;;;6.13;2.77;;;17.30;99.90;;;;;;5012655;28;21143;-62
2023/07/31 07:44:29;;;;;;;3.70;2.40;;;17.30;99.90;;;;;;5022011;28;20294;-65
2023/07/31 07:46:55;;;;;;;3.13;2.67;;;17.40;99.90;;;;;;5019620;28;20603;-67
2023/07/31 07:49:22;;;;;;;3.73;3.33;;;17.20;99.90;;;;;;5023002;28;20294;-66
2023/07/31 07:51:48;;;;;;;6.00;3.20;;;17.20;99.90;;;;;;5025801;28;20248;-78
2023/07/31 07:54:13;;;;;;;4.40;2.43;;;17.10;99.90;;;;;;5046297;28;20278;-79
2023/07/31 07:56:39;;;;;;;2.70;2.37;;;17.20;99.90;;;;;;5045828;28;20195;-79
2023/07/31 07:59:04;;;;;;;4.33;2.90;;;17.20;99.90;;;;;;5019432;28;20206;-73
2023/07/31 08:01:30;;;;;;;3.50;2.70;;;17.20;99.90;;;;;;5011759;28;20229;-73
2023/07/31 08:03:55;;;;;;;2.87;2.13;;;17.30;99.90;;;;;;5011891;28;20204;-69
2023/07/31 08:06:22;;;;;;;3.17;2.77;;;17.20;99.90;;;;;;5017901;28;20212;-64
2023/07/31 08:08:48;;;;;;;4.63;2.73;;;17.30;99.90;;;;;;5010179;28;20188;-61
2023/07/31 08:11:13;;;;;;;6.50;3.13;;;17.30;99.90;;;;;;5010257;28;20238;-70
2023/07/31 08:13:38;;;;;;;4.67;3.10;;;17.30;99.90;;;;;;5014812;28;20231;-60
2023/07/31 08:16:04;;;;;;;3.93;2.70;;;17.30;99.90;;;;;;5013964;28;20783;-60
2023/07/31 08:18:31;;;;;;;6.63;2.90;;;17.30;99.90;;;;;;5011493;28;20204;-74
2023/07/31 08:20:56;;;;;;;4.57;2.57;;;17.40;99.90;;;;;;5017917;28;20205;-63
2023/07/31 08:23:22;;;;;;;5.47;2.30;;;17.40;99.90;;;;;;5017270;28;20215;-74
2023/07/31 08:25:49;;;;;;;3.63;2.13;;;17.40;99.90;;;;;;5019272;28;20521;-69
2023/07/31 08:28:15;;;;;;;5.00;2.43;;;17.40;99.90;;;;;;5028828;28;20183;-72
2023/07/31 08:30:41;;;;;;;4.73;2.73;;;17.50;99.90;;;;;;5018628;28;20215;-70
2023/07/31 08:33:07;;;;;;;5.60;2.97;;;17.30;99.90;;;;;;5018885;28;20266;-72
2023/07/31 08:35:32;;;;;;;2.17;1.83;;;17.40;99.90;;;;;;5008370;28;20228;-72
2023/07/31 08:37:57;;;;;;;4.93;2.30;;;17.50;99.90;;;;;;5005110;28;20239;-72
2023/07/31 08:40:24;;;;;;;4.80;2.57;;;17.50;99.90;;;;;;5005894;28;20204;-71
2023/07/31 08:42:51;;;;;;;3.17;2.37;;;17.50;99.90;;;;;;5009803;28;20221;-74
2023/07/31 08:45:19;;;;;;;6.37;2.27;;;17.50;99.90;;;;;;5014689;28;20172;-64
2023/07/31 08:47:47;;;;;;;4.57;2.33;;;17.50;99.90;;;;;;5014974;28;20304;-72
2023/07/31 08:50:14;;;;;;;3.50;2.03;;;17.60;99.90;;;;;;5023458;28;20282;-63
2023/07/31 08:52:40;;;;;;;2.10;1.90;;;17.70;99.90;;;;;;5011747;28;20219;-65
2023/07/31 08:55:06;;;;;;;2.37;2.17;;;17.70;99.90;;;;;;5021499;28;20816;-64
2023/07/31 08:57:35;;;;;;;3.00;2.10;;;17.70;99.90;;;;;;5012221;28;20826;-63
2023/07/31 09:00:01;;;;;;;2.77;2.53;;;17.80;99.90;;;;;;5017707;28;20184;-62
2023/07/31 09:02:34;;;;;;;2.17;1.97;;;17.80;99.90;;;;;;5017343;28;20219;-66
2023/07/31 09:05:01;;;;;;;2.93;1.97;;;17.90;99.90;;;;;;5011483;28;20203;-65
2023/07/31 09:07:28;;;;;;;2.07;1.87;;;18.00;99.90;;;;;;5016840;28;20209;-66
2023/07/31 09:09:54;;;;;;;6.40;2.20;;;18.10;99.90;;;;;;5022165;28;20645;-74
2023/07/31 09:12:20;;;;;;;1.90;1.80;;;18.10;99.90;;;;;;5021175;28;20293;-67
2023/07/31 09:14:46;;;;;;;3.03;2.10;;;18.20;99.90;;;;;;5009685;28;20200;-65
2023/07/31 09:17:12;;;;;;;2.23;2.03;;;18.10;99.90;;;;;;5014087;28;20769;-67
2023/07/31 09:19:37;;;;;;;2.83;2.10;;;18.00;99.90;;;;;;5016997;28;20184;-67
2023/07/31 09:22:06;;;;;;;3.70;1.93;;;18.00;99.90;;;;;;5015104;28;20212;-66
2023/07/31 09:24:34;;;;;;;1.77;1.53;;;18.00;99.90;;;;;;5012942;28;20184;-68
2023/07/31 09:27:01;;;;;;;3.47;2.03;;;17.90;99.90;;;;;;5011412;28;20204;-68
2023/07/31 09:29:29;;;;;;;1.90;1.80;;;17.80;99.90;;;;;;5015736;28;20207;-74
2023/07/31 09:31:55;;;;;;;1.60;1.50;;;17.80;99.90;;;;;;5007261;28;20398;-72
2023/07/31 09:34:37;;;;;;;2.10;1.97;;;17.70;99.90;;;;;;5006664;28;20385;-72
2023/07/31 09:37:04;;;;;;;2.30;1.40;;;17.70;99.90;;;;;;5012585;28;20180;-72
2023/07/31 09:39:30;;;;;;;2.40;1.50;;;17.80;99.90;;;;;;5005493;28;20235;-73
2023/07/31 09:41:56;;;;;;;1.70;1.20;;;17.70;99.90;;;;;;5009362;28;20212;-70
2023/07/31 09:44:36;;;;;;;1.60;1.50;;;17.60;99.90;;;;;;5005446;28;20231;-74
2023/07/31 09:47:02;;;;;;;1.57;1.43;;;17.70;99.90;;;;;;5005551;28;20192;-72
2023/07/31 09:49:29;;;;;;;1.60;1.50;;;17.80;99.90;;;;;;5011247;28;20200;-73
2023/07/31 09:51:54;;;;;;;2.33;2.13;;;17.70;99.90;;;;;;5020389;28;20686;-73
2023/07/31 09:54:20;;;;;;;2.97;1.70;;;17.80;99.90;;;;;;5019460;28;20214;-68
2023/07/31 09:56:48;;;;;;;2.97;1.50;;;17.80;99.90;;;;;;5017102;28;20663;-74
2023/07/31 09:59:19;;;;;;;3.00;1.30;;;17.80;99.90;;;;;;5020604;28;20277;-73
2023/07/31 10:01:46;;;;;;;2.00;1.60;;;17.90;99.90;;;;;;5021829;28;20226;-65
2023/07/31 10:04:12;;;;;;;2.33;1.43;;;18.00;99.90;;;;;;5014560;28;20199;-65
2023/07/31 10:06:40;;;;;;;2.00;1.80;;;18.00;99.90;;;;;;5018900;28;20183;-64
2023/07/31 10:09:08;;;;;;;2.47;1.87;;;18.10;99.90;;;;;;5015926;28;20196;-64
2023/07/31 10:11:38;;;;;;;1.73;1.50;;;18.20;99.90;;;;;;5016198;28;21040;-74
2023/07/31 10:14:05;;;;;;;8.73;4.87;;;18.30;99.90;;;;;;5017291;28;20287;-63
2023/07/31 10:16:31;;;;;;;11.67;8.27;;;18.30;99.90;;;;;;5018263;28;20188;-74
2023/07/31 10:18:57;;;;;;;4.67;1.90;;;18.30;99.90;;;;;;5010931;28;20763;-66
2023/07/31 10:21:23;;;;;;;2.47;2.27;;;18.30;99.90;;;;;;5016046;28;20278;-65
2023/07/31 10:23:50;;;;;;;3.93;2.50;;;18.30;99.90;;;;;;5018169;28;20317;-62
2023/07/31 10:26:18;;;;;;;5.63;2.77;;;18.30;99.90;;;;;;5017397;28;20226;-61
2023/07/31 10:28:46;;;;;;;3.73;2.70;;;18.20;99.90;;;;;;5015340;28;20195;-61
2023/07/31 10:31:13;;;;;;;5.20;3.17;;;18.30;99.90;;;;;;5018424;28;20275;-76
2023/07/31 10:33:39;;;;;;;5.03;3.17;;;18.40;99.90;;;;;;5013385;28;20192;-63
2023/07/31 10:36:20;;;;;;;4.40;3.00;;;18.50;99.90;;;;;;5018505;28;20883;-69
2023/07/31 10:38:49;;;;;;;3.83;3.00;;;18.50;99.90;;;;;;5017009;28;20681;-73
2023/07/31 10:41:14;;;;;;;3.33;3.10;;;18.50;99.90;;;;;;5018193;28;20192;-64
2023/07/31 10:43:40;;;;;;;3.50;2.80;;;18.70;99.90;;;;;;5008233;28;20247;-64
2023/07/31 10:46:12;;;;;;;3.87;2.97;;;18.80;99.90;;;;;;5018414;28;20784;-69
2023/07/31 10:48:41;;;;;;;6.70;3.13;;;19.00;99.90;;;;;;5013305;28;20204;-75
2023/07/31 10:51:11;;;;;;;9.97;3.47;;;19.20;99.90;;;;;;5015568;28;20239;-72
2023/07/31 10:53:38;;;;;;;3.97;3.20;;;19.30;99.90;;;;;;5006285;28;20261;-69
2023/07/31 10:56:13;;;;;;;4.27;3.43;;;19.40;99.90;;;;;;5005179;28;20196;-70
2023/07/31 10:58:39;;;;;;;5.37;3.30;;;19.60;99.90;;;;;;5015705;28;20198;-69
2023/07/31 11:01:05;;;;;;;4.70;3.00;;;19.70;99.90;;;;;;5006251;28;20347;-72
2023/07/31 11:03:49;;;;;;;8.33;3.27;;;19.80;99.90;;;;;;5011523;28;20705;-72
2023/07/31 11:06:15;;;;;;;6.07;3.03;;;20.00;99.90;;;;;;5015150;28;20183;-73
2023/07/31 11:08:49;;;;;;;4.90;3.47;;;20.10;99.90;;;;;;5017044;28;20204;-72
2023/07/31 11:11:17;;;;;;;4.50;3.20;;;20.20;99.90;;;;;;5007700;28;20976;-71
2023/07/31 11:13:45;;;;;;;2.97;2.77;;;20.20;99.90;;;;;;5018449;28;20231;-73
2023/07/31 11:16:13;;;;;;;4.13;3.53;;;20.10;99.90;;;;;;5010130;28;20195;-72
2023/07/31 11:18:42;;;;;;;6.13;3.03;;;20.00;99.90;;;;;;5016445;28;20270;-73
2023/07/31 11:21:12;;;;;;;5.97;3.90;;;20.00;99.90;;;;;;5012627;28;20198;-73
2023/07/31 11:23:38;;;;;;;4.80;3.20;;;20.10;99.90;;;;;;5016716;28;20246;-74
2023/07/31 11:26:06;;;;;;;3.80;3.10;;;20.20;99.90;;;;;;5012467;28;20196;-62
2023/07/31 11:28:35;;;;;;;4.23;3.37;;;20.20;99.90;;;;;;5000388;28;20212;-63
2023/07/31 11:31:02;;;;;;;6.77;3.73;;;20.10;99.90;;;;;;5010364;28;20204;-62
2023/07/31 11:33:28;;;;;;;3.07;2.77;;;20.00;99.90;;;;;;5019252;28;20219;-66
2023/07/31 11:35:53;;;;;;;3.70;3.07;;;20.00;99.90;;;;;;5017038;28;20233;-74
2023/07/31 11:38:30;;;;;;;4.60;3.20;;;20.00;99.90;;;;;;5010755;28;20200;-62
2023/07/31 11:41:02;;;;;;;8.23;3.30;;;20.00;99.90;;;;;;5020722;28;20674;-72
2023/07/31 11:43:28;;;;;;;6.83;3.70;;;20.10;99.90;;;;;;5013824;28;20221;-63
2023/07/31 11:45:55;;;;;;;3.33;3.03;;;20.00;99.90;;;;;;5015834;28;20176;-73
2023/07/31 11:48:38;;;;;;;3.63;3.07;;;20.00;99.90;;;;;;5017750;28;20666;-72
2023/07/31 11:51:05;;;;;;;3.27;2.97;;;20.00;99.90;;;;;;5017059;28;20184;-72
2023/07/31 11:53:41;;;;;;;3.63;3.10;;;19.90;99.90;;;;;;5018507;28;20262;-73
2023/07/31 11:56:10;;;;;;;2.70;2.50;;;20.00;99.90;;;;;;5011370;28;20341;-73
2023/07/31 11:58:37;;;;;;;3.60;2.97;;;20.10;99.90;;;;;;5005456;28;20243;-73
2023/07/31 12:01:03;;;;;;;3.20;2.90;;;20.00;99.90;;;;;;5017380;28;20191;-72
2023/07/31 12:03:29;;;;;;;6.13;3.17;;;20.10;99.90;;;;;;5016317;28;20212;-73
2023/07/31 12:05:55;;;;;;;4.27;3.00;;;20.10;99.90;;;;;;5020232;28;20265;-73
2023/07/31 12:08:22;;;;;;;5.23;2.87;;;20.10;99.90;;;;;;5014449;28;20318;-73
2023/07/31 12:10:50;;;;;;;3.70;3.07;;;20.10;99.90;;;;;;5012450;28;20203;-72
2023/07/31 12:13:26;;;;;;;3.57;3.03;;;20.10;99.90;;;;;;5017857;28;20192;-71
2023/07/31 12:16:01;;;;;;;6.53;2.97;;;20.10;99.90;;;;;;5022633;28;20218;-64
2023/07/31 12:18:30;;;;;;;5.27;2.93;;;20.20;99.90;;;;;;5020561;28;20264;-71
2023/07/31 12:20:57;;;;;;;4.30;3.17;;;20.30;99.90;;;;;;5015938;28;20199;-63
2023/07/31 12:23:29;;;;;;;5.23;3.03;;;20.50;99.90;;;;;;5020546;28;20225;-62
2023/07/31 12:26:04;;;;;;;3.37;3.07;;;20.50;99.90;;;;;;5017938;28;20738;-70
2023/07/31 12:28:30;;;;;;;4.80;2.97;;;20.60;99.90;;;;;;5018824;28;20216;-64
2023/07/31 12:31:00;;;;;;;4.67;3.20;;;20.70;99.90;;;;;;5018808;28;20658;-62
2023/07/31 12:33:34;;;;;;;3.37;2.83;;;20.70;99.90;;;;;;5019615;28;20745;-68
2023/07/31 12:36:04;;;;;;;3.20;2.90;;;20.70;99.90;;;;;;5012671;28;20356;-68
2023/07/31 12:38:30;;;;;;;2.83;2.60;;;20.80;99.90;;;;;;5021591;28;20700;-73
2023/07/31 12:40:56;;;;;;;5.90;2.47;;;20.80;99.90;;;;;;5017413;28;20276;-65
2023/07/31 12:43:21;;;;;;;3.73;2.73;;;20.90;99.90;;;;;;5020737;28;20320;-59